Airfield :
LOGIN :

Register | Disclaimer

   EN    FR    IT 

 










Legend :    VFR   Marginal VFR   IFR   Intensive IFR   Very Intensive IFR
Visi :
Ceiling :
>= 8 km
>= 3000ft
5 to 8 km
1000 to 3000 ft
1500m to 5 km
500 to 1000 ft
800 to 1500m
200 to 500 ft
< 800m
< 200 ft
Symbols :   Thunderstorms  Fog  Heavy snow  Heavy precipitations  Wind > 20 kt
SIGMETs :     Misc.  Thunderstorms  Icing  Turbulence  Mountain Waves  Volcanic Ashes






- Airport Elevation : 459 ft
- IATA code : CER


LFRC - Cherbourg / Maupertus

CURRENT METAR :
  • 261100Z AUTO 20003KT 6000 BKN024 OVC030 06/04 Q1035 TEMPO 4000 BR BKN008

EXPIRED METARs :
  • 261030Z AUTO 25003KT 6000 OVC023 05/03 Q1035 TEMPO 4000 BR BKN008
  • 261000Z AUTO 21003KT 6000 OVC027 05/03 Q1036 TEMPO 4000 BR BKN008
  • 260930Z AUTO 23003KT 8000 FEW023 OVC031 05/03 Q1036 TEMPO 4000 BR BKN008
  • 260900Z AUTO 22003KT 6000 OVC033 04/03 Q1035 TEMPO 4000 BR BKN008
  • 260830Z AUTO 18002KT 6000 BKN030 04/02 Q1035 TEMPO 4000 BR BKN008

TAF TAF LFRC
Valid from the 26 at 09:00 until the 26 at 18:00 UTC


260800Z 2609/2618 VRB03KT 6000 OVC025
PROB40
TEMPO 2609/2618 4000 BR BKN008



MET'MAP, your aeronautical weather chart ! - Copyright ORBIFLY December 2007 - Disclaimer

ORBIFLY MET'MAP TEAM :

Programming & Development : Alexandra Zaïnal
Original concept : Baudouin d'Aumeries
Technical & hardware support : Manuel Goepfert
Assistance : Marc-Olivier Méhu

Contact : metmap@orbifly.com




SOURCES & CREDITS :

   NOAA